sensor_id;sensor_type;location;lat;lon;timestamp;P1;durP1;ratioP1;P2;durP2;ratioP2
20067;SDS011;10194;50.824;7.134;2023-10-08T00:00:47;62.67;;;53.63;;
20067;SDS011;10194;50.824;7.134;2023-10-08T00:03:20;66.90;;;55.73;;
20067;SDS011;10194;50.824;7.134;2023-10-08T00:05:46;62.43;;;53.40;;
20067;SDS011;10194;50.824;7.134;2023-10-08T00:08:14;72.33;;;58.07;;
20067;SDS011;10194;50.824;7.134;2023-10-08T00:10:41;69.13;;;56.50;;
20067;SDS011;10194;50.824;7.134;2023-10-08T00:13:12;62.53;;;53.30;;
20067;SDS011;10194;50.824;7.134;2023-10-08T00:15:43;70.00;;;56.83;;
20067;SDS011;10194;50.824;7.134;2023-10-08T00:18:18;69.90;;;57.20;;
20067;SDS011;10194;50.824;7.134;2023-10-08T00:20:44;62.53;;;53.43;;
20067;SDS011;10194;50.824;7.134;2023-10-08T00:23:19;69.20;;;56.60;;
20067;SDS011;10194;50.824;7.134;2023-10-08T00:25:52;62.70;;;53.47;;
20067;SDS011;10194;50.824;7.134;2023-10-08T00:28:19;68.50;;;55.90;;
20067;SDS011;10194;50.824;7.134;2023-10-08T00:30:46;68.83;;;55.80;;
20067;SDS011;10194;50.824;7.134;2023-10-08T00:33:13;62.80;;;53.37;;
20067;SDS011;10194;50.824;7.134;2023-10-08T00:35:40;62.10;;;53.10;;
20067;SDS011;10194;50.824;7.134;2023-10-08T00:38:08;66.77;;;55.20;;
20067;SDS011;10194;50.824;7.134;2023-10-08T00:40:40;67.90;;;55.10;;
20067;SDS011;10194;50.824;7.134;2023-10-08T00:43:10;62.87;;;53.37;;
20067;SDS011;10194;50.824;7.134;2023-10-08T00:45:58;62.10;;;53.00;;
20067;SDS011;10194;50.824;7.134;2023-10-08T00:48:24;62.40;;;53.17;;
20067;SDS011;10194;50.824;7.134;2023-10-08T00:50:56;66.10;;;54.90;;
20067;SDS011;10194;50.824;7.134;2023-10-08T00:53:40;68.10;;;55.23;;
20067;SDS011;10194;50.824;7.134;2023-10-08T00:56:08;68.33;;;55.53;;
20067;SDS011;10194;50.824;7.134;2023-10-08T00:58:40;61.63;;;52.57;;
20067;SDS011;10194;50.824;7.134;2023-10-08T01:01:06;66.90;;;54.63;;
20067;SDS011;10194;50.824;7.134;2023-10-08T01:03:35;70.07;;;56.00;;
20067;SDS011;10194;50.824;7.134;2023-10-08T01:06:10;65.03;;;53.90;;
20067;SDS011;10194;50.824;7.134;2023-10-08T01:08:37;61.47;;;52.40;;
20067;SDS011;10194;50.824;7.134;2023-10-08T01:11:16;61.97;;;52.60;;
20067;SDS011;10194;50.824;7.134;2023-10-08T01:13:46;65.23;;;54.43;;
20067;SDS011;10194;50.824;7.134;2023-10-08T01:16:12;61.83;;;52.60;;
20067;SDS011;10194;50.824;7.134;2023-10-08T01:18:39;63.90;;;53.47;;
20067;SDS011;10194;50.824;7.134;2023-10-08T01:21:08;68.27;;;55.27;;
20067;SDS011;10194;50.824;7.134;2023-10-08T01:23:44;68.63;;;55.33;;
20067;SDS011;10194;50.824;7.134;2023-10-08T01:26:12;65.37;;;53.90;;
20067;SDS011;10194;50.824;7.134;2023-10-08T01:28:40;61.70;;;52.37;;
20067;SDS011;10194;50.824;7.134;2023-10-08T01:31:07;63.60;;;53.23;;
20067;SDS011;10194;50.824;7.134;2023-10-08T01:33:37;64.60;;;53.53;;
20067;SDS011;10194;50.824;7.134;2023-10-08T01:36:11;65.83;;;53.93;;
20067;SDS011;10194;50.824;7.134;2023-10-08T01:38:38;61.47;;;52.27;;
20067;SDS011;10194;50.824;7.134;2023-10-08T01:41:04;66.73;;;54.53;;
20067;SDS011;10194;50.824;7.134;2023-10-08T01:43:43;65.87;;;54.03;;
20067;SDS011;10194;50.824;7.134;2023-10-08T01:46:10;63.83;;;53.20;;
20067;SDS011;10194;50.824;7.134;2023-10-08T01:48:37;63.47;;;52.97;;
20067;SDS011;10194;50.824;7.134;2023-10-08T01:51:04;65.87;;;53.87;;
20067;SDS011;10194;50.824;7.134;2023-10-08T01:53:36;61.50;;;52.17;;
20067;SDS011;10194;50.824;7.134;2023-10-08T01:56:05;66.13;;;54.07;;
20067;SDS011;10194;50.824;7.134;2023-10-08T01:58:31;66.37;;;54.10;;
20067;SDS011;10194;50.824;7.134;2023-10-08T02:00:59;64.20;;;53.30;;
20067;SDS011;10194;50.824;7.134;2023-10-08T02:03:25;60.87;;;51.77;;
20067;SDS011;10194;50.824;7.134;2023-10-08T02:05:54;60.67;;;51.67;;
20067;SDS011;10194;50.824;7.134;2023-10-08T02:08:24;60.80;;;51.70;;
20067;SDS011;10194;50.824;7.134;2023-10-08T02:10:51;67.93;;;54.63;;
20067;SDS011;10194;50.824;7.134;2023-10-08T02:13:17;61.97;;;52.37;;
20067;SDS011;10194;50.824;7.134;2023-10-08T02:15:44;66.90;;;54.17;;
20067;SDS011;10194;50.824;7.134;2023-10-08T02:18:17;69.23;;;55.47;;
20067;SDS011;10194;50.824;7.134;2023-10-08T02:20:44;65.60;;;53.87;;
20067;SDS011;10194;50.824;7.134;2023-10-08T02:23:10;67.00;;;54.30;;
20067;SDS011;10194;50.824;7.134;2023-10-08T02:25:37;62.30;;;52.27;;
20067;SDS011;10194;50.824;7.134;2023-10-08T02:28:05;63.03;;;52.83;;
20067;SDS011;10194;50.824;7.134;2023-10-08T02:30:37;63.20;;;52.60;;
20067;SDS011;10194;50.824;7.134;2023-10-08T02:33:04;63.87;;;52.80;;
20067;SDS011;10194;50.824;7.134;2023-10-08T02:35:39;67.00;;;54.00;;
20067;SDS011;10194;50.824;7.134;2023-10-08T02:38:13;69.00;;;55.43;;
20067;SDS011;10194;50.824;7.134;2023-10-08T02:40:41;60.83;;;51.77;;
20067;SDS011;10194;50.824;7.134;2023-10-08T02:43:12;61.30;;;52.10;;
20067;SDS011;10194;50.824;7.134;2023-10-08T02:45:40;66.93;;;54.03;;
20067;SDS011;10194;50.824;7.134;2023-10-08T02:48:09;68.27;;;55.37;;
20067;SDS011;10194;50.824;7.134;2023-10-08T02:50:39;61.37;;;52.20;;
20067;SDS011;10194;50.824;7.134;2023-10-08T02:53:05;65.27;;;53.60;;
20067;SDS011;10194;50.824;7.134;2023-10-08T02:55:38;61.17;;;52.07;;
20067;SDS011;10194;50.824;7.134;2023-10-08T02:58:11;67.87;;;54.93;;
20067;SDS011;10194;50.824;7.134;2023-10-08T03:00:41;62.00;;;52.37;;
20067;SDS011;10194;50.824;7.134;2023-10-08T03:03:08;64.80;;;53.43;;
20067;SDS011;10194;50.824;7.134;2023-10-08T03:05:48;64.27;;;53.30;;
20067;SDS011;10194;50.824;7.134;2023-10-08T03:08:16;70.70;;;56.23;;
20067;SDS011;10194;50.824;7.134;2023-10-08T03:10:52;61.27;;;52.20;;
20067;SDS011;10194;50.824;7.134;2023-10-08T03:13:22;67.03;;;54.47;;
20067;SDS011;10194;50.824;7.134;2023-10-08T03:15:48;66.20;;;54.13;;
20067;SDS011;10194;50.824;7.134;2023-10-08T03:18:26;62.57;;;52.80;;
20067;SDS011;10194;50.824;7.134;2023-10-08T03:21:01;62.47;;;52.93;;
20067;SDS011;10194;50.824;7.134;2023-10-08T03:23:45;66.17;;;54.27;;
20067;SDS011;10194;50.824;7.134;2023-10-08T03:26:22;62.00;;;52.60;;
20067;SDS011;10194;50.824;7.134;2023-10-08T03:29:01;67.90;;;54.90;;
20067;SDS011;10194;50.824;7.134;2023-10-08T03:31:41;61.97;;;52.73;;
20067;SDS011;10194;50.824;7.134;2023-10-08T03:34:16;65.10;;;53.80;;
20067;SDS011;10194;50.824;7.134;2023-10-08T03:36:46;68.50;;;55.33;;
20067;SDS011;10194;50.824;7.134;2023-10-08T03:39:14;67.87;;;55.03;;
20067;SDS011;10194;50.824;7.134;2023-10-08T03:41:41;68.67;;;55.53;;
20067;SDS011;10194;50.824;7.134;2023-10-08T03:44:08;62.50;;;52.80;;
20067;SDS011;10194;50.824;7.134;2023-10-08T03:46:41;66.90;;;54.63;;
20067;SDS011;10194;50.824;7.134;2023-10-08T03:49:08;68.00;;;55.10;;
20067;SDS011;10194;50.824;7.134;2023-10-08T03:51:53;63.60;;;53.20;;
20067;SDS011;10194;50.824;7.134;2023-10-08T03:54:22;65.00;;;54.13;;
20067;SDS011;10194;50.824;7.134;2023-10-08T03:56:55;61.97;;;52.67;;
20067;SDS011;10194;50.824;7.134;2023-10-08T03:59:21;68.30;;;55.20;;
20067;SDS011;10194;50.824;7.134;2023-10-08T04:01:52;61.80;;;52.67;;
20067;SDS011;10194;50.824;7.134;2023-10-08T04:04:20;63.77;;;53.40;;
20067;SDS011;10194;50.824;7.134;2023-10-08T04:06:55;61.67;;;52.67;;
20067;SDS011;10194;50.824;7.134;2023-10-08T04:09:41;61.83;;;52.60;;
20067;SDS011;10194;50.824;7.134;2023-10-08T04:12:07;63.67;;;53.30;;
20067;SDS011;10194;50.824;7.134;2023-10-08T04:14:36;61.70;;;52.57;;
20067;SDS011;10194;50.824;7.134;2023-10-08T04:17:02;61.77;;;52.63;;
20067;SDS011;10194;50.824;7.134;2023-10-08T04:19:29;61.17;;;52.17;;
20067;SDS011;10194;50.824;7.134;2023-10-08T04:21:55;62.80;;;52.93;;
20067;SDS011;10194;50.824;7.134;2023-10-08T04:24:22;63.30;;;53.13;;
20067;SDS011;10194;50.824;7.134;2023-10-08T04:27:02;66.33;;;54.47;;
20067;SDS011;10194;50.824;7.134;2023-10-08T04:29:30;66.57;;;54.63;;
20067;SDS011;10194;50.824;7.134;2023-10-08T04:31:57;61.27;;;52.37;;
20067;SDS011;10194;50.824;7.134;2023-10-08T04:34:29;67.77;;;54.90;;
20067;SDS011;10194;50.824;7.134;2023-10-08T04:36:55;61.67;;;52.50;;
20067;SDS011;10194;50.824;7.134;2023-10-08T04:39:26;65.63;;;53.97;;
20067;SDS011;10194;50.824;7.134;2023-10-08T04:42:02;63.97;;;53.23;;
20067;SDS011;10194;50.824;7.134;2023-10-08T04:44:32;66.67;;;54.60;;
20067;SDS011;10194;50.824;7.134;2023-10-08T04:46:58;63.13;;;52.87;;
20067;SDS011;10194;50.824;7.134;2023-10-08T04:49:29;64.70;;;53.67;;
20067;SDS011;10194;50.824;7.134;2023-10-08T04:54:38;61.37;;;52.10;;
20067;SDS011;10194;50.824;7.134;2023-10-08T04:57:16;66.73;;;54.27;;
20067;SDS011;10194;50.824;7.134;2023-10-08T04:59:46;61.70;;;52.40;;
20067;SDS011;10194;50.824;7.134;2023-10-08T05:02:15;66.03;;;54.03;;
20067;SDS011;10194;50.824;7.134;2023-10-08T05:05:03;65.40;;;53.87;;
20067;SDS011;10194;50.824;7.134;2023-10-08T05:07:47;62.30;;;52.50;;
20067;SDS011;10194;50.824;7.134;2023-10-08T05:10:14;61.23;;;52.07;;
20067;SDS011;10194;50.824;7.134;2023-10-08T05:12:49;61.13;;;52.03;;
20067;SDS011;10194;50.824;7.134;2023-10-08T05:15:26;66.43;;;54.23;;
20067;SDS011;10194;50.824;7.134;2023-10-08T05:18:01;63.40;;;53.23;;
20067;SDS011;10194;50.824;7.134;2023-10-08T05:20:48;66.40;;;54.10;;
20067;SDS011;10194;50.824;7.134;2023-10-08T05:23:16;61.27;;;52.07;;
20067;SDS011;10194;50.824;7.134;2023-10-08T05:26:06;66.33;;;53.97;;
20067;SDS011;10194;50.824;7.134;2023-10-08T05:28:35;61.47;;;52.20;;
20067;SDS011;10194;50.824;7.134;2023-10-08T05:31:13;66.90;;;54.30;;
20067;SDS011;10194;50.824;7.134;2023-10-08T05:33:40;61.10;;;52.03;;
20067;SDS011;10194;50.824;7.134;2023-10-08T05:36:39;65.47;;;53.57;;
20067;SDS011;10194;50.824;7.134;2023-10-08T05:39:38;60.63;;;51.63;;
20067;SDS011;10194;50.824;7.134;2023-10-08T05:42:04;61.53;;;52.13;;
20067;SDS011;10194;50.824;7.134;2023-10-08T05:44:41;65.77;;;53.67;;
20067;SDS011;10194;50.824;7.134;2023-10-08T05:47:14;63.80;;;52.80;;
20067;SDS011;10194;50.824;7.134;2023-10-08T05:49:58;65.90;;;53.57;;
20067;SDS011;10194;50.824;7.134;2023-10-08T05:52:43;67.27;;;54.23;;
20067;SDS011;10194;50.824;7.134;2023-10-08T05:55:22;64.57;;;53.20;;
20067;SDS011;10194;50.824;7.134;2023-10-08T05:57:59;66.77;;;53.97;;
20067;SDS011;10194;50.824;7.134;2023-10-08T06:00:44;60.77;;;51.57;;
20067;SDS011;10194;50.824;7.134;2023-10-08T06:03:15;65.27;;;53.50;;
20067;SDS011;10194;50.824;7.134;2023-10-08T06:06:05;60.93;;;51.83;;
20067;SDS011;10194;50.824;7.134;2023-10-08T06:08:42;60.97;;;51.77;;
20067;SDS011;10194;50.824;7.134;2023-10-08T06:11:19;65.27;;;53.37;;
20067;SDS011;10194;50.824;7.134;2023-10-08T06:14:17;62.20;;;52.27;;
20067;SDS011;10194;50.824;7.134;2023-10-08T06:16:53;61.77;;;52.07;;
20067;SDS011;10194;50.824;7.134;2023-10-08T06:19:38;62.77;;;52.70;;
20067;SDS011;10194;50.824;7.134;2023-10-08T06:22:04;66.97;;;54.50;;
20067;SDS011;10194;50.824;7.134;2023-10-08T06:24:30;61.20;;;52.10;;
20067;SDS011;10194;50.824;7.134;2023-10-08T06:26:57;63.23;;;53.20;;
20067;SDS011;10194;50.824;7.134;2023-10-08T06:29:29;62.77;;;52.97;;
20067;SDS011;10194;50.824;7.134;2023-10-08T06:31:56;66.03;;;54.23;;
20067;SDS011;10194;50.824;7.134;2023-10-08T06:34:27;65.70;;;54.37;;
20067;SDS011;10194;50.824;7.134;2023-10-08T06:36:54;61.73;;;52.70;;
20067;SDS011;10194;50.824;7.134;2023-10-08T06:39:24;62.30;;;52.80;;
20067;SDS011;10194;50.824;7.134;2023-10-08T06:41:54;67.87;;;55.40;;
20067;SDS011;10194;50.824;7.134;2023-10-08T06:44:22;62.17;;;53.07;;
20067;SDS011;10194;50.824;7.134;2023-10-08T06:46:49;62.00;;;53.00;;
20067;SDS011;10194;50.824;7.134;2023-10-08T06:49:17;67.90;;;55.37;;
20067;SDS011;10194;50.824;7.134;2023-10-08T06:51:46;62.63;;;53.07;;
20067;SDS011;10194;50.824;7.134;2023-10-08T06:54:13;67.77;;;55.27;;
20067;SDS011;10194;50.824;7.134;2023-10-08T06:56:42;68.73;;;55.80;;
20067;SDS011;10194;50.824;7.134;2023-10-08T06:59:12;67.63;;;55.27;;
20067;SDS011;10194;50.824;7.134;2023-10-08T07:01:38;62.27;;;53.20;;
20067;SDS011;10194;50.824;7.134;2023-10-08T07:04:04;67.90;;;55.60;;
20067;SDS011;10194;50.824;7.134;2023-10-08T07:06:31;69.33;;;56.00;;
20067;SDS011;10194;50.824;7.134;2023-10-08T07:09:02;63.70;;;53.97;;
20067;SDS011;10194;50.824;7.134;2023-10-08T07:11:32;62.40;;;53.47;;
20067;SDS011;10194;50.824;7.134;2023-10-08T07:14:04;62.03;;;53.27;;
20067;SDS011;10194;50.824;7.134;2023-10-08T07:16:31;68.37;;;56.13;;
20067;SDS011;10194;50.824;7.134;2023-10-08T07:18:58;69.00;;;56.50;;
20067;SDS011;10194;50.824;7.134;2023-10-08T07:21:27;68.70;;;56.43;;
20067;SDS011;10194;50.824;7.134;2023-10-08T07:24:10;66.40;;;55.30;;
20067;SDS011;10194;50.824;7.134;2023-10-08T07:26:43;65.83;;;55.33;;
20067;SDS011;10194;50.824;7.134;2023-10-08T07:29:12;68.20;;;56.23;;
20067;SDS011;10194;50.824;7.134;2023-10-08T07:31:42;67.87;;;56.13;;
20067;SDS011;10194;50.824;7.134;2023-10-08T07:34:18;67.37;;;56.07;;
20067;SDS011;10194;50.824;7.134;2023-10-08T07:36:56;68.00;;;56.37;;
20067;SDS011;10194;50.824;7.134;2023-10-08T07:39:22;68.87;;;56.70;;
20067;SDS011;10194;50.824;7.134;2023-10-08T07:41:57;69.63;;;57.27;;
20067;SDS011;10194;50.824;7.134;2023-10-08T07:44:25;70.93;;;57.93;;
20067;SDS011;10194;50.824;7.134;2023-10-08T07:46:55;66.13;;;55.60;;
20067;SDS011;10194;50.824;7.134;2023-10-08T07:49:21;68.57;;;57.00;;
20067;SDS011;10194;50.824;7.134;2023-10-08T07:51:48;69.20;;;57.57;;
20067;SDS011;10194;50.824;7.134;2023-10-08T07:54:21;67.30;;;56.70;;
20067;SDS011;10194;50.824;7.134;2023-10-08T07:56:49;69.37;;;57.57;;
20067;SDS011;10194;50.824;7.134;2023-10-08T07:59:24;70.93;;;58.37;;
20067;SDS011;10194;50.824;7.134;2023-10-08T08:01:50;69.00;;;57.63;;
20067;SDS011;10194;50.824;7.134;2023-10-08T08:04:18;68.27;;;57.23;;
20067;SDS011;10194;50.824;7.134;2023-10-08T08:06:50;69.27;;;57.67;;
20067;SDS011;10194;50.824;7.134;2023-10-08T08:09:18;67.87;;;57.30;;
20067;SDS011;10194;50.824;7.134;2023-10-08T08:11:48;64.03;;;55.07;;
20067;SDS011;10194;50.824;7.134;2023-10-08T08:14:17;72.17;;;60.10;;
20067;SDS011;10194;50.824;7.134;2023-10-08T08:16:49;68.33;;;57.67;;
20067;SDS011;10194;50.824;7.134;2023-10-08T08:19:15;72.57;;;60.47;;
20067;SDS011;10194;50.824;7.134;2023-10-08T08:21:45;71.17;;;59.83;;
20067;SDS011;10194;50.824;7.134;2023-10-08T08:24:14;69.83;;;58.97;;
20067;SDS011;10194;50.824;7.134;2023-10-08T08:26:54;66.73;;;57.07;;
20067;SDS011;10194;50.824;7.134;2023-10-08T08:29:32;67.97;;;57.90;;
20067;SDS011;10194;50.824;7.134;2023-10-08T08:32:09;73.20;;;61.30;;
20067;SDS011;10194;50.824;7.134;2023-10-08T08:34:41;70.97;;;60.57;;
20067;SDS011;10194;50.824;7.134;2023-10-08T08:37:09;72.17;;;60.83;;
20067;SDS011;10194;50.824;7.134;2023-10-08T08:39:37;69.57;;;59.10;;
20067;SDS011;10194;50.824;7.134;2023-10-08T08:42:04;71.77;;;60.47;;
20067;SDS011;10194;50.824;7.134;2023-10-08T08:44:36;68.43;;;58.03;;
20067;SDS011;10194;50.824;7.134;2023-10-08T08:47:10;72.53;;;60.97;;
20067;SDS011;10194;50.824;7.134;2023-10-08T08:49:42;72.27;;;60.80;;
20067;SDS011;10194;50.824;7.134;2023-10-08T08:52:11;66.70;;;57.10;;
20067;SDS011;10194;50.824;7.134;2023-10-08T08:54:39;69.50;;;59.03;;
20067;SDS011;10194;50.824;7.134;2023-10-08T08:57:07;73.30;;;61.53;;
20067;SDS011;10194;50.824;7.134;2023-10-08T08:59:43;70.67;;;59.57;;
20067;SDS011;10194;50.824;7.134;2023-10-08T09:02:19;70.83;;;60.03;;
20067;SDS011;10194;50.824;7.134;2023-10-08T09:04:47;68.97;;;58.47;;
20067;SDS011;10194;50.824;7.134;2023-10-08T09:07:14;68.10;;;58.07;;
20067;SDS011;10194;50.824;7.134;2023-10-08T09:09:40;69.90;;;58.97;;
20067;SDS011;10194;50.824;7.134;2023-10-08T09:12:06;64.60;;;55.43;;
20067;SDS011;10194;50.824;7.134;2023-10-08T09:14:35;69.97;;;58.37;;
20067;SDS011;10194;50.824;7.134;2023-10-08T09:17:03;71.33;;;59.27;;
20067;SDS011;10194;50.824;7.134;2023-10-08T09:19:30;65.00;;;55.53;;
20067;SDS011;10194;50.824;7.134;2023-10-08T09:22:06;71.23;;;59.20;;
20067;SDS011;10194;50.824;7.134;2023-10-08T09:24:41;69.73;;;58.67;;
20067;SDS011;10194;50.824;7.134;2023-10-08T09:27:08;66.53;;;57.03;;
20067;SDS011;10194;50.824;7.134;2023-10-08T09:29:43;72.60;;;61.33;;
20067;SDS011;10194;50.824;7.134;2023-10-08T09:32:11;66.77;;;57.27;;
20067;SDS011;10194;50.824;7.134;2023-10-08T09:34:58;69.70;;;59.43;;
20067;SDS011;10194;50.824;7.134;2023-10-08T09:37:25;66.00;;;57.10;;
20067;SDS011;10194;50.824;7.134;2023-10-08T09:39:52;68.87;;;58.97;;
20067;SDS011;10194;50.824;7.134;2023-10-08T09:42:19;71.47;;;60.67;;
20067;SDS011;10194;50.824;7.134;2023-10-08T09:44:49;74.13;;;62.63;;
20067;SDS011;10194;50.824;7.134;2023-10-08T09:47:16;72.60;;;61.50;;
20067;SDS011;10194;50.824;7.134;2023-10-08T09:52:48;71.17;;;60.27;;
20067;SDS011;10194;50.824;7.134;2023-10-08T09:55:24;76.87;;;63.13;;
20067;SDS011;10194;50.824;7.134;2023-10-08T09:57:51;73.77;;;62.00;;
20067;SDS011;10194;50.824;7.134;2023-10-08T10:00:16;74.10;;;61.87;;
20067;SDS011;10194;50.824;7.134;2023-10-08T10:02:54;75.03;;;62.73;;
20067;SDS011;10194;50.824;7.134;2023-10-08T10:05:21;71.80;;;59.80;;
20067;SDS011;10194;50.824;7.134;2023-10-08T10:07:49;71.17;;;60.03;;
20067;SDS011;10194;50.824;7.134;2023-10-08T10:10:30;72.87;;;60.83;;
20067;SDS011;10194;50.824;7.134;2023-10-08T10:13:02;71.07;;;59.83;;
20067;SDS011;10194;50.824;7.134;2023-10-08T10:15:39;72.47;;;60.60;;
20067;SDS011;10194;50.824;7.134;2023-10-08T10:18:08;72.60;;;60.40;;
20067;SDS011;10194;50.824;7.134;2023-10-08T10:20:45;72.63;;;61.60;;
20067;SDS011;10194;50.824;7.134;2023-10-08T10:23:34;69.57;;;59.80;;
20067;SDS011;10194;50.824;7.134;2023-10-08T10:26:26;73.50;;;61.53;;
20067;SDS011;10194;50.824;7.134;2023-10-08T10:31:42;86.73;;;69.87;;
20067;SDS011;10194;50.824;7.134;2023-10-08T10:34:19;74.20;;;62.93;;
20067;SDS011;10194;50.824;7.134;2023-10-08T10:36:53;72.77;;;61.87;;
20067;SDS011;10194;50.824;7.134;2023-10-08T10:39:24;74.97;;;63.47;;
20067;SDS011;10194;50.824;7.134;2023-10-08T10:41:55;74.53;;;63.43;;
20067;SDS011;10194;50.824;7.134;2023-10-08T10:44:30;72.80;;;62.93;;
20067;SDS011;10194;50.824;7.134;2023-10-08T10:46:57;75.70;;;64.63;;
20067;SDS011;10194;50.824;7.134;2023-10-08T10:49:43;75.07;;;63.67;;
20067;SDS011;10194;50.824;7.134;2023-10-08T10:52:14;76.07;;;65.33;;
20067;SDS011;10194;50.824;7.134;2023-10-08T10:54:51;75.70;;;64.97;;
20067;SDS011;10194;50.824;7.134;2023-10-08T10:57:25;76.40;;;64.23;;
20067;SDS011;10194;50.824;7.134;2023-10-08T11:00:02;74.43;;;64.07;;
20067;SDS011;10194;50.824;7.134;2023-10-08T11:03:04;74.60;;;63.43;;
20067;SDS011;10194;50.824;7.134;2023-10-08T11:05:47;73.90;;;62.90;;
20067;SDS011;10194;50.824;7.134;2023-10-08T11:08:19;77.23;;;65.00;;
20067;SDS011;10194;50.824;7.134;2023-10-08T11:10:48;74.03;;;63.10;;
20067;SDS011;10194;50.824;7.134;2023-10-08T11:13:20;72.80;;;62.90;;
20067;SDS011;10194;50.824;7.134;2023-10-08T11:15:53;73.43;;;62.50;;
20067;SDS011;10194;50.824;7.134;2023-10-08T11:18:23;73.97;;;63.27;;
20067;SDS011;10194;50.824;7.134;2023-10-08T11:20:53;74.37;;;62.97;;
20067;SDS011;10194;50.824;7.134;2023-10-08T11:23:48;74.53;;;62.90;;
20067;SDS011;10194;50.824;7.134;2023-10-08T11:26:18;73.53;;;62.70;;
20067;SDS011;10194;50.824;7.134;2023-10-08T11:28:46;73.93;;;63.27;;
20067;SDS011;10194;50.824;7.134;2023-10-08T11:31:13;75.13;;;64.67;;
20067;SDS011;10194;50.824;7.134;2023-10-08T11:33:51;75.10;;;64.87;;
20067;SDS011;10194;50.824;7.134;2023-10-08T11:36:20;74.63;;;63.97;;
20067;SDS011;10194;50.824;7.134;2023-10-08T11:38:53;74.20;;;63.87;;
20067;SDS011;10194;50.824;7.134;2023-10-08T11:41:32;73.97;;;63.67;;
20067;SDS011;10194;50.824;7.134;2023-10-08T11:44:15;74.57;;;63.80;;
20067;SDS011;10194;50.824;7.134;2023-10-08T11:46:44;73.63;;;62.93;;
20067;SDS011;10194;50.824;7.134;2023-10-08T11:49:16;74.43;;;63.07;;
20067;SDS011;10194;50.824;7.134;2023-10-08T11:51:43;74.63;;;63.90;;
20067;SDS011;10194;50.824;7.134;2023-10-08T11:54:13;73.47;;;62.73;;
20067;SDS011;10194;50.824;7.134;2023-10-08T11:56:39;73.57;;;62.73;;
20067;SDS011;10194;50.824;7.134;2023-10-08T11:59:06;73.43;;;62.33;;
20067;SDS011;10194;50.824;7.134;2023-10-08T12:01:35;72.00;;;60.43;;
20067;SDS011;10194;50.824;7.134;2023-10-08T12:04:02;72.00;;;60.83;;
20067;SDS011;10194;50.824;7.134;2023-10-08T12:06:29;72.63;;;61.40;;
20067;SDS011;10194;50.824;7.134;2023-10-08T12:08:56;73.17;;;61.60;;
20067;SDS011;10194;50.824;7.134;2023-10-08T12:11:24;72.93;;;61.50;;
20067;SDS011;10194;50.824;7.134;2023-10-08T12:13:57;72.80;;;60.63;;
20067;SDS011;10194;50.824;7.134;2023-10-08T12:16:26;73.20;;;61.57;;
20067;SDS011;10194;50.824;7.134;2023-10-08T12:18:55;73.90;;;62.27;;
20067;SDS011;10194;50.824;7.134;2023-10-08T12:21:28;74.10;;;63.10;;
20067;SDS011;10194;50.824;7.134;2023-10-08T12:23:57;74.23;;;63.53;;
20067;SDS011;10194;50.824;7.134;2023-10-08T12:26:24;74.00;;;62.70;;
20067;SDS011;10194;50.824;7.134;2023-10-08T12:28:50;74.13;;;62.97;;
20067;SDS011;10194;50.824;7.134;2023-10-08T12:31:18;72.97;;;61.67;;
20067;SDS011;10194;50.824;7.134;2023-10-08T12:33:49;73.93;;;63.00;;
20067;SDS011;10194;50.824;7.134;2023-10-08T12:36:22;74.00;;;62.93;;
20067;SDS011;10194;50.824;7.134;2023-10-08T12:38:52;74.30;;;62.87;;
20067;SDS011;10194;50.824;7.134;2023-10-08T12:41:24;73.23;;;61.80;;
20067;SDS011;10194;50.824;7.134;2023-10-08T12:43:54;74.30;;;63.40;;
20067;SDS011;10194;50.824;7.134;2023-10-08T12:46:20;74.33;;;63.23;;
20067;SDS011;10194;50.824;7.134;2023-10-08T12:48:50;74.17;;;63.10;;
20067;SDS011;10194;50.824;7.134;2023-10-08T12:51:18;72.77;;;61.73;;
20067;SDS011;10194;50.824;7.134;2023-10-08T12:53:49;73.30;;;62.30;;
20067;SDS011;10194;50.824;7.134;2023-10-08T12:56:16;73.87;;;62.90;;
20067;SDS011;10194;50.824;7.134;2023-10-08T12:58:46;72.83;;;61.77;;
20067;SDS011;10194;50.824;7.134;2023-10-08T13:01:18;72.30;;;61.10;;
20067;SDS011;10194;50.824;7.134;2023-10-08T13:03:45;74.30;;;62.90;;
20067;SDS011;10194;50.824;7.134;2023-10-08T13:06:14;74.73;;;63.30;;
20067;SDS011;10194;50.824;7.134;2023-10-08T13:08:53;74.00;;;63.13;;
20067;SDS011;10194;50.824;7.134;2023-10-08T13:11:23;74.30;;;63.37;;
20067;SDS011;10194;50.824;7.134;2023-10-08T13:13:55;74.17;;;62.73;;
20067;SDS011;10194;50.824;7.134;2023-10-08T13:16:22;73.53;;;62.67;;
20067;SDS011;10194;50.824;7.134;2023-10-08T13:18:50;74.63;;;64.00;;
20067;SDS011;10194;50.824;7.134;2023-10-08T13:21:17;74.03;;;62.90;;
20067;SDS011;10194;50.824;7.134;2023-10-08T13:23:49;74.53;;;63.77;;
20067;SDS011;10194;50.824;7.134;2023-10-08T13:26:22;75.03;;;63.90;;
20067;SDS011;10194;50.824;7.134;2023-10-08T13:28:49;74.40;;;63.60;;
20067;SDS011;10194;50.824;7.134;2023-10-08T13:31:16;76.83;;;65.53;;
20067;SDS011;10194;50.824;7.134;2023-10-08T13:33:44;73.80;;;62.80;;
20067;SDS011;10194;50.824;7.134;2023-10-08T13:36:13;75.50;;;64.13;;
20067;SDS011;10194;50.824;7.134;2023-10-08T13:38:41;74.90;;;63.60;;
20067;SDS011;10194;50.824;7.134;2023-10-08T13:41:08;74.67;;;63.53;;
20067;SDS011;10194;50.824;7.134;2023-10-08T13:43:40;74.37;;;63.20;;
20067;SDS011;10194;50.824;7.134;2023-10-08T13:46:11;77.50;;;65.33;;
20067;SDS011;10194;50.824;7.134;2023-10-08T13:48:39;75.60;;;64.73;;
20067;SDS011;10194;50.824;7.134;2023-10-08T13:51:13;74.40;;;63.43;;
20067;SDS011;10194;50.824;7.134;2023-10-08T13:54:03;74.43;;;63.30;;
20067;SDS011;10194;50.824;7.134;2023-10-08T13:56:34;74.03;;;62.80;;
20067;SDS011;10194;50.824;7.134;2023-10-08T13:59:03;75.67;;;64.03;;
20067;SDS011;10194;50.824;7.134;2023-10-08T14:01:37;74.50;;;63.67;;
20067;SDS011;10194;50.824;7.134;2023-10-08T14:04:26;73.97;;;62.80;;
20067;SDS011;10194;50.824;7.134;2023-10-08T14:06:55;74.13;;;63.17;;
20067;SDS011;10194;50.824;7.134;2023-10-08T14:09:23;74.67;;;63.40;;
20067;SDS011;10194;50.824;7.134;2023-10-08T14:12:02;74.60;;;63.80;;
20067;SDS011;10194;50.824;7.134;2023-10-08T14:14:32;73.47;;;62.47;;
20067;SDS011;10194;50.824;7.134;2023-10-08T14:17:00;74.33;;;63.27;;
20067;SDS011;10194;50.824;7.134;2023-10-08T14:19:40;73.90;;;62.53;;
20067;SDS011;10194;50.824;7.134;2023-10-08T14:22:24;74.37;;;63.00;;
20067;SDS011;10194;50.824;7.134;2023-10-08T14:24:52;73.83;;;62.10;;
20067;SDS011;10194;50.824;7.134;2023-10-08T14:27:27;73.83;;;62.57;;
20067;SDS011;10194;50.824;7.134;2023-10-08T14:30:09;72.73;;;61.60;;
20067;SDS011;10194;50.824;7.134;2023-10-08T14:32:43;74.73;;;63.53;;
20067;SDS011;10194;50.824;7.134;2023-10-08T14:35:12;72.30;;;60.70;;
20067;SDS011;10194;50.824;7.134;2023-10-08T14:37:57;73.77;;;62.10;;
20067;SDS011;10194;50.824;7.134;2023-10-08T14:40:41;73.87;;;61.90;;
20067;SDS011;10194;50.824;7.134;2023-10-08T14:43:25;74.93;;;63.30;;
20067;SDS011;10194;50.824;7.134;2023-10-08T14:45:54;73.37;;;61.37;;
20067;SDS011;10194;50.824;7.134;2023-10-08T14:48:20;75.20;;;62.73;;
20067;SDS011;10194;50.824;7.134;2023-10-08T14:50:47;73.47;;;61.83;;
20067;SDS011;10194;50.824;7.134;2023-10-08T14:53:14;75.03;;;62.57;;
20067;SDS011;10194;50.824;7.134;2023-10-08T14:55:40;73.03;;;61.57;;